Delacroix, Louisiana
Current Conditions -  °F | °C
As of 11:55 AM on Thursday 30 Oct 2014 (Local Time) from KNBG Reporting Station
Clear Clear  
Wind Chill: 72°   Ceiling: Unl
Heat Index: 72°   Visibility: 10mi
Dew Point: 44°   Wind: 12mph
Humidity: 37%   Direction: 50°NE
Pressure: 30.1"   Gusts: NA
Location:  29.8369°N, 89.7702°W
Report Text: KNBG 301655Z 05010KT 10SM CLR 22/07 A3010 RMK AO2 SLP191 T02220067 $
Loading
Personal Weather Stations






























Interactive Weather Map
Tropical Storm Tracking
New forecast layout! Learn more

10-Day Weather Forecast

Advertisements
Track Severe Weather on mobile